createdAt,value
2019-01-08T00:04:04.465Z,8.15
2019-01-08T00:06:53.429Z,8.16
2019-01-08T00:09:35.099Z,8.20
2019-01-08T00:12:04.452Z,8.20
2019-01-08T00:15:12.448Z,8.30
2019-01-08T00:17:41.974Z,8.30
2019-01-08T00:20:11.321Z,8.36
2019-01-08T00:28:32.173Z,8.44
2019-01-08T00:33:56.913Z,8.45
2019-01-08T00:36:26.446Z,8.42
2019-01-08T00:39:15.463Z,8.40
2019-01-08T00:41:44.956Z,8.44
2019-01-08T00:44:14.287Z,8.44
2019-01-08T00:46:43.630Z,8.45
2019-01-08T00:51:58.524Z,8.38
2019-01-08T00:54:40.004Z,8.35
2019-01-08T00:57:09.567Z,8.35
2019-01-08T00:59:39.080Z,8.28
2019-01-08T01:02:08.411Z,8.28
2019-01-08T01:04:38.050Z,8.31
2019-01-08T01:07:07.386Z,8.33
2019-01-08T01:09:37.049Z,8.37
2019-01-08T01:12:06.631Z,8.37
2019-01-08T01:15:35.379Z,8.40
2019-01-08T01:18:05.004Z,8.40
2019-01-08T01:20:34.347Z,8.44
2019-01-08T01:23:03.721Z,8.46
2019-01-08T01:25:33.284Z,8.45
2019-01-08T01:28:02.613Z,8.46
2019-01-08T01:30:32.131Z,8.46
2019-01-08T01:33:01.741Z,8.41
2019-01-08T01:35:43.595Z,8.36
2019-01-08T01:38:13.191Z,8.36
2019-01-08T01:40:42.550Z,8.41
2019-01-08T01:43:11.882Z,8.42
2019-01-08T01:46:00.875Z,8.43
2019-01-08T01:48:30.330Z,8.43
2019-01-08T01:50:59.972Z,8.40
2019-01-08T01:53:29.471Z,8.39
2019-01-08T01:55:58.797Z,8.37
2019-01-08T01:58:52.541Z,8.35
2019-01-08T02:01:22.402Z,8.35
2019-01-08T02:03:51.836Z,8.35
2019-01-08T02:06:21.339Z,8.35
2019-01-08T02:08:50.783Z,8.32
2019-01-08T02:11:20.639Z,8.30
2019-01-08T02:13:50.585Z,8.28
2019-01-08T02:16:21.533Z,8.26
2019-01-08T02:18:50.882Z,8.27
2019-01-08T02:21:20.353Z,8.26
2019-01-08T02:23:49.777Z,8.26
2019-01-08T02:26:19.413Z,8.24
2019-01-08T02:28:48.781Z,8.26
2019-01-08T02:31:30.380Z,8.27
2019-01-08T02:33:59.723Z,8.27
2019-01-08T02:36:29.386Z,8.28
2019-01-08T02:38:58.996Z,8.26
2019-01-08T02:41:47.898Z,8.18
2019-01-08T02:44:17.968Z,8.19
2019-01-08T02:46:48.013Z,8.19
2019-01-08T02:49:28.045Z,8.15
2019-01-08T02:51:57.770Z,8.15
2019-01-08T02:57:15.774Z,8.18
2019-01-08T02:59:45.120Z,8.20
2019-01-08T03:02:14.554Z,8.24
2019-01-08T03:04:45.510Z,8.27
2019-01-08T03:07:14.858Z,8.31
2019-01-08T03:09:44.415Z,8.32
2019-01-08T03:12:13.764Z,8.29
2019-01-08T03:14:43.098Z,8.28
2019-01-08T03:17:12.572Z,8.23
2019-01-08T03:19:41.901Z,8.19
2019-01-08T03:22:11.521Z,8.14
2019-01-08T03:27:22.460Z,8.13
2019-01-08T03:29:51.831Z,8.13
2019-01-08T03:32:21.173Z,8.12
2019-01-08T03:34:50.773Z,8.12
2019-01-08T03:37:20.427Z,8.12
2019-01-08T03:39:49.771Z,8.14
2019-01-08T03:42:19.396Z,8.17
2019-01-08T03:44:49.034Z,8.17
2019-01-08T03:47:30.589Z,8.15
2019-01-08T03:49:59.927Z,8.15
2019-01-08T03:52:29.636Z,8.01
2019-01-08T03:54:59.015Z,8.01
2019-01-08T03:57:41.002Z,8.04
2019-01-08T04:00:31.446Z,8.04
2019-01-08T04:03:01.096Z,8.06
2019-01-08T04:05:30.791Z,8.03
2019-01-08T04:08:00.143Z,8.01
2019-01-08T04:10:42.133Z,7.94
2019-01-08T04:13:23.742Z,7.92
2019-01-08T04:15:53.096Z,7.92
2019-01-08T04:18:42.075Z,7.93
2019-01-08T04:21:11.714Z,7.95
2019-01-08T04:23:41.052Z,7.95
2019-01-08T04:26:10.694Z,7.99
2019-01-08T04:28:40.026Z,8.00
2019-01-08T04:31:09.683Z,8.03
2019-01-08T04:33:39.013Z,8.01
2019-01-08T04:36:08.669Z,8.00
2019-01-08T04:38:38.018Z,8.02
2019-01-08T04:41:07.359Z,8.04
2019-01-08T04:43:36.854Z,7.99
2019-01-08T04:46:06.193Z,7.99
2019-01-08T04:48:48.578Z,8.00
2019-01-08T04:51:17.925Z,8.00
2019-01-08T04:53:53.486Z,8.00
2019-01-08T04:56:23.270Z,8.01
2019-01-08T04:58:52.833Z,8.01
2019-01-08T05:01:22.162Z,8.03
2019-01-08T05:03:51.802Z,8.05
2019-01-08T05:06:21.138Z,8.05
2019-01-08T05:08:50.494Z,8.04
2019-01-08T05:11:19.968Z,8.01
2019-01-08T05:13:49.313Z,8.01
2019-01-08T05:16:38.152Z,7.97
2019-01-08T05:19:07.785Z,7.97
2019-01-08T05:21:37.175Z,7.97
2019-01-08T05:24:06.845Z,7.98
2019-01-08T05:26:36.194Z,7.95
2019-01-08T05:29:05.887Z,7.93
2019-01-08T05:34:28.984Z,7.89
2019-01-08T05:37:17.454Z,7.86
2019-01-08T05:39:48.253Z,7.83
2019-01-08T05:42:17.885Z,7.73
2019-01-08T05:44:48.286Z,7.73
2019-01-08T05:47:17.979Z,7.70
2019-01-08T05:49:48.314Z,7.66
2019-01-08T05:52:58.008Z,7.66
2019-01-08T05:55:27.362Z,7.65
2019-01-08T05:57:57.005Z,7.65
2019-01-08T06:00:26.337Z,7.67
2019-01-08T06:02:55.979Z,7.68
2019-01-08T06:05:25.337Z,7.67
2019-01-08T06:07:54.978Z,7.71
2019-01-08T06:10:24.312Z,7.76
2019-01-08T06:12:53.972Z,7.78
2019-01-08T06:15:23.301Z,7.79
2019-01-08T06:17:52.911Z,7.82
2019-01-08T06:20:22.272Z,7.84
2019-01-08T06:22:52.181Z,7.86
2019-01-08T06:25:21.531Z,7.88
2019-01-08T06:27:50.910Z,7.90
2019-01-08T06:30:24.657Z,7.92
2019-01-08T06:33:10.430Z,7.94
2019-01-08T06:35:40.051Z,7.95
2019-01-08T06:38:09.470Z,7.91
2019-01-08T06:40:38.812Z,7.91
2019-01-08T06:43:27.604Z,7.89
2019-01-08T06:45:57.248Z,7.89
2019-01-08T06:48:26.588Z,7.89
2019-01-08T06:50:56.549Z,7.90
2019-01-08T06:53:46.360Z,7.90
2019-01-08T06:56:15.693Z,7.86
2019-01-08T06:58:45.395Z,7.79
2019-01-08T07:01:14.995Z,7.75
2019-01-08T07:03:56.884Z,7.73
2019-01-08T07:06:26.328Z,7.72
2019-01-08T07:09:15.291Z,7.71
2019-01-08T07:11:44.647Z,7.71
2019-01-08T07:14:14.286Z,7.71
2019-01-08T07:16:43.727Z,7.69
2019-01-08T07:19:13.289Z,7.71
2019-01-08T07:21:42.643Z,7.71
2019-01-08T07:24:12.051Z,7.68
2019-01-08T07:26:41.446Z,7.68
2019-01-08T07:29:10.777Z,7.68
2019-01-08T07:32:01.295Z,7.72
2019-01-08T07:34:30.625Z,7.71
2019-01-08T07:37:00.605Z,7.72
2019-01-08T07:39:29.935Z,7.69
2019-01-08T07:41:59.576Z,7.67
2019-01-08T07:44:28.910Z,7.63
2019-01-08T07:46:58.391Z,7.59
2019-01-08T07:49:27.744Z,7.52
2019-01-08T07:51:57.124Z,7.49
2019-01-08T07:54:26.477Z,7.43
2019-01-08T07:56:55.814Z,7.35
2019-01-08T07:59:25.417Z,7.29
2019-01-08T08:01:54.761Z,7.26
2019-01-08T08:04:24.534Z,7.16
2019-01-08T08:06:54.158Z,7.16
2019-01-08T08:09:23.572Z,7.16
2019-01-08T08:11:52.916Z,7.16
2019-01-08T08:14:34.583Z,7.21
2019-01-08T08:17:04.174Z,7.21
2019-01-08T08:19:33.542Z,7.26
2019-01-08T08:22:04.003Z,7.28
2019-01-08T08:24:33.610Z,7.29
2019-01-08T08:27:02.949Z,7.26
2019-01-08T08:29:32.581Z,7.25
2019-01-08T08:32:01.912Z,7.19
2019-01-08T08:34:31.458Z,7.15
2019-01-08T08:37:01.095Z,7.12
2019-01-08T08:39:30.607Z,7.16
2019-01-08T08:41:59.950Z,7.17
2019-01-08T08:44:29.461Z,7.20
2019-01-08T08:46:58.791Z,7.20
2019-01-08T08:49:28.436Z,7.23
2019-01-08T08:51:58.067Z,7.23
2019-01-08T08:54:47.142Z,7.23
2019-01-08T08:57:16.723Z,7.24
2019-01-08T08:59:46.371Z,7.24
2019-01-08T09:02:15.974Z,7.27
2019-01-08T09:05:05.223Z,7.21
2019-01-08T09:07:34.582Z,7.17
2019-01-08T09:10:15.703Z,7.17
2019-01-08T09:12:45.039Z,7.15
2019-01-08T09:15:14.868Z,7.10
2019-01-08T09:17:44.516Z,7.08
2019-01-08T09:20:13.878Z,7.09
2019-01-08T09:22:43.498Z,7.10
2019-01-08T09:25:12.861Z,7.10
2019-01-08T09:27:42.207Z,7.11
2019-01-08T09:30:11.765Z,7.17
2019-01-08T09:32:41.099Z,7.17
2019-01-08T09:35:33.056Z,7.21
2019-01-08T09:38:02.691Z,7.23
2019-01-08T09:40:51.137Z,7.29
2019-01-08T09:43:40.102Z,7.37
2019-01-08T09:46:22.635Z,7.43
2019-01-08T09:48:52.966Z,7.43
2019-01-08T09:51:34.751Z,7.52
2019-01-08T09:54:04.190Z,7.52
2019-01-08T09:56:52.939Z,7.54
2019-01-08T09:59:22.566Z,7.54
2019-01-08T10:01:52.193Z,7.60
2019-01-08T10:07:23.541Z,7.72
2019-01-08T10:09:53.017Z,7.72
2019-01-08T10:12:22.708Z,7.69
2019-01-08T10:14:52.069Z,7.69
2019-01-08T10:17:23.043Z,7.69
2019-01-08T10:19:52.965Z,7.72
2019-01-08T10:22:24.007Z,7.74
2019-01-08T10:24:53.648Z,7.81
2019-01-08T10:27:22.995Z,7.81
2019-01-08T10:30:00.840Z,7.82
2019-01-08T10:32:30.167Z,7.82
2019-01-08T10:34:59.825Z,7.86
2019-01-08T10:37:29.190Z,7.89
2019-01-08T10:39:58.830Z,7.97
2019-01-08T10:42:28.187Z,8.03
2019-01-08T10:44:57.808Z,8.12
2019-01-08T10:47:27.205Z,8.33
2019-01-08T10:49:56.980Z,8.43
2019-01-08T10:52:26.327Z,8.42
2019-01-08T10:54:55.970Z,8.36
2019-01-08T10:57:25.322Z,8.30
2019-01-08T10:59:54.697Z,8.24
2019-01-08T11:02:24.057Z,8.17
2019-01-08T11:04:53.511Z,8.09
2019-01-08T11:07:22.970Z,8.00
2019-01-08T11:09:52.595Z,8.00
2019-01-08T11:12:22.009Z,7.94
2019-01-08T11:15:10.744Z,7.84
2019-01-08T11:17:40.094Z,7.69
2019-01-08T11:20:09.915Z,7.62
2019-01-08T11:22:39.265Z,7.61
2019-01-08T11:25:08.887Z,7.66
2019-01-08T11:27:38.245Z,7.72
2019-01-08T11:33:32.209Z,8.16
2019-01-08T11:36:01.952Z,8.59
2019-01-08T11:38:31.574Z,8.72
2019-01-08T11:41:01.197Z,8.63
2019-01-08T11:43:30.558Z,8.56
2019-01-08T11:46:21.089Z,8.62
2019-01-08T11:48:50.448Z,8.77
2019-01-08T11:51:19.897Z,8.83
2019-01-08T11:53:49.413Z,8.79
2019-01-08T11:56:18.903Z,8.78
2019-01-08T11:58:49.197Z,8.75
2019-01-08T12:01:18.542Z,8.70
2019-01-08T12:03:49.794Z,8.67
2019-01-08T12:06:19.482Z,8.60
2019-01-08T12:08:49.251Z,8.50
2019-01-08T12:11:18.912Z,8.20
2019-01-08T12:13:49.248Z,8.20
2019-01-08T12:16:18.899Z,8.07
2019-01-08T12:18:49.329Z,7.97
2019-01-08T12:21:18.973Z,8.00
2019-01-08T12:23:49.405Z,8.04
2019-01-08T12:26:30.824Z,8.07
2019-01-08T12:29:00.463Z,8.07
2019-01-08T12:31:30.091Z,8.06
2019-01-08T12:33:59.420Z,8.06
2019-01-08T12:36:29.012Z,8.09
2019-01-08T12:38:58.842Z,8.09
2019-01-08T12:41:28.152Z,8.11
2019-01-08T12:43:57.523Z,8.10
2019-01-08T12:46:39.466Z,8.10
2019-01-08T12:49:09.079Z,8.09
2019-01-08T12:51:38.432Z,8.09
2019-01-08T12:54:08.065Z,8.09
2019-01-08T12:56:37.402Z,8.06
2019-01-08T12:59:07.047Z,8.03
2019-01-08T13:01:36.384Z,7.99
2019-01-08T13:04:06.096Z,8.01
2019-01-08T13:06:35.426Z,8.01
2019-01-08T13:09:25.986Z,7.94
2019-01-08T13:11:55.556Z,7.86
2019-01-08T13:14:44.363Z,7.67
2019-01-08T13:17:13.984Z,7.67
2019-01-08T13:19:43.337Z,7.64
2019-01-08T13:22:12.668Z,7.63
2019-01-08T13:25:01.519Z,7.62
2019-01-08T13:27:31.135Z,7.67
2019-01-08T13:30:00.872Z,7.67
2019-01-08T13:32:32.124Z,7.70
2019-01-08T13:35:01.467Z,7.81
2019-01-08T13:37:31.103Z,7.88
2019-01-08T13:40:00.895Z,7.93
2019-01-08T13:42:30.230Z,7.97
2019-01-08T13:44:59.580Z,7.97
2019-01-08T13:47:48.573Z,7.95
2019-01-08T13:50:18.144Z,7.95
2019-01-08T13:52:48.199Z,8.00
2019-01-08T13:55:17.527Z,8.01
2019-01-08T13:57:59.325Z,8.15
2019-01-08T14:00:28.668Z,8.15
2019-01-08T14:02:58.393Z,8.26
2019-01-08T14:05:27.733Z,8.27
2019-01-08T14:07:57.421Z,8.25
2019-01-08T14:10:27.054Z,8.26
2019-01-08T14:12:56.458Z,8.26
2019-01-08T14:15:26.123Z,8.19
2019-01-08T14:17:55.988Z,8.21
2019-01-08T14:20:46.843Z,7.98
2019-01-08T14:23:16.313Z,7.62
2019-01-08T14:25:45.918Z,7.62
2019-01-08T14:28:15.286Z,7.30
2019-01-08T14:33:59.520Z,6.82
2019-01-08T14:36:28.855Z,6.71
2019-01-08T14:38:58.500Z,6.65
2019-01-08T14:41:27.840Z,6.59
2019-01-08T14:43:57.482Z,6.62
2019-01-08T14:46:26.824Z,6.67
2019-01-08T14:48:56.460Z,6.72
2019-01-08T14:51:25.791Z,6.79
2019-01-08T14:53:55.464Z,6.84
2019-01-08T14:56:24.796Z,6.86
2019-01-08T14:58:54.546Z,6.88
2019-01-08T15:01:24.137Z,6.90
2019-01-08T15:06:52.755Z,6.94
2019-01-08T15:09:22.478Z,6.94
2019-01-08T15:11:51.830Z,6.94
2019-01-08T15:14:21.378Z,6.95
2019-01-08T15:16:50.717Z,6.94
2019-01-08T15:19:20.374Z,6.97
2019-01-08T15:21:49.750Z,6.97
2019-01-08T15:24:19.113Z,6.99
2019-01-08T15:26:50.065Z,6.95
2019-01-08T15:29:19.461Z,6.90
2019-01-08T15:31:49.837Z,6.80
2019-01-08T15:34:31.569Z,6.69
2019-01-08T15:37:01.817Z,6.69
2019-01-08T15:39:31.467Z,6.70
2019-01-08T15:42:01.086Z,6.70
2019-01-08T15:44:30.842Z,6.70
2019-01-08T15:47:00.484Z,6.70
2019-01-08T15:49:29.840Z,6.70
2019-01-08T15:51:59.887Z,6.75
2019-01-08T15:54:48.903Z,6.75
2019-01-08T15:57:18.538Z,6.75
2019-01-08T15:59:47.923Z,6.76
2019-01-08T16:02:17.630Z,6.76
2019-01-08T16:04:46.997Z,6.74
2019-01-08T16:07:16.522Z,6.73
2019-01-08T16:09:45.864Z,6.74
2019-01-08T16:12:15.225Z,6.71
2019-01-08T16:14:44.648Z,6.67
2019-01-08T16:17:13.998Z,6.67
2019-01-08T16:19:43.627Z,6.66
2019-01-08T16:22:13.376Z,6.68
2019-01-08T17:53:12.685Z,6.13
2019-01-08T17:55:42.042Z,6.14
2019-01-08T17:58:50.405Z,6.19
2019-01-08T18:01:40.721Z,6.23
2019-01-08T18:04:10.070Z,6.23
2019-01-08T18:06:39.603Z,6.27
2019-01-08T18:09:09.034Z,6.31
2019-01-08T18:11:38.377Z,6.29
2019-01-08T18:14:08.043Z,6.25
2019-01-08T18:16:37.380Z,6.21
2019-01-08T18:19:07.052Z,6.16
2019-01-08T18:21:55.719Z,6.16
2019-01-08T18:24:25.278Z,6.11
2019-01-08T18:26:54.985Z,6.11
2019-01-08T18:29:24.333Z,6.13
2019-01-08T18:32:13.377Z,6.19
2019-01-08T18:35:02.194Z,6.19
2019-01-08T18:37:31.894Z,6.21
2019-01-08T18:40:01.729Z,6.22
2019-01-08T18:42:31.078Z,6.21
2019-01-08T18:45:00.441Z,6.18
2019-01-08T18:47:30.042Z,6.12
2019-01-08T18:49:59.395Z,6.08
2019-01-08T18:52:28.900Z,6.09
2019-01-08T18:54:58.253Z,6.07
2019-01-08T18:57:27.895Z,6.06
2019-01-08T18:59:57.360Z,6.02
2019-01-08T19:02:27.085Z,5.98
2019-01-08T19:04:56.472Z,5.97
2019-01-08T19:07:26.109Z,5.97
2019-01-08T19:10:16.538Z,5.99
2019-01-08T19:13:07.218Z,6.03
2019-01-08T19:15:36.669Z,6.06
2019-01-08T19:18:06.518Z,6.07
2019-01-08T19:20:36.134Z,6.10
2019-01-08T19:23:07.427Z,6.10
2019-01-08T19:25:37.072Z,6.11
2019-01-08T19:28:06.700Z,6.15
2019-01-08T19:30:36.062Z,6.14
2019-01-08T19:33:05.401Z,6.14
2019-01-08T19:35:35.049Z,6.16
2019-01-08T19:38:04.684Z,6.19
2019-01-08T19:40:34.210Z,6.24
2019-01-08T19:43:03.598Z,6.28
2019-01-08T19:45:33.075Z,6.29
2019-01-08T19:48:04.311Z,6.30
2019-01-08T19:50:33.962Z,6.28
2019-01-08T19:53:15.595Z,6.28
2019-01-08T19:56:04.960Z,6.28
2019-01-08T19:58:34.316Z,6.32
2019-01-08T20:01:03.671Z,6.31
2019-01-08T20:03:34.629Z,6.28
2019-01-08T20:06:04.526Z,6.26
2019-01-08T20:08:34.189Z,6.25
2019-01-08T20:11:03.799Z,6.26
2019-01-08T20:13:33.315Z,6.28
2019-01-08T20:16:02.683Z,6.23
2019-01-08T20:18:32.183Z,6.18
2019-01-08T20:21:21.006Z,6.12
2019-01-08T20:23:50.617Z,6.08
2019-01-08T20:26:20.198Z,6.03
2019-01-08T20:28:50.559Z,6.03
2019-01-08T20:31:20.239Z,6.01
2019-01-08T20:33:50.735Z,6.01
2019-01-08T20:36:20.201Z,5.98
2019-01-08T20:38:50.561Z,5.97
2019-01-08T20:41:20.187Z,5.97
2019-01-08T20:43:50.567Z,5.94
2019-01-08T20:46:20.215Z,5.94
2019-01-08T20:48:50.622Z,5.92
2019-01-08T20:51:39.526Z,5.92
2019-01-08T20:54:09.262Z,5.88
2019-01-08T20:56:38.619Z,5.80
2019-01-08T20:59:08.503Z,5.77
2019-01-08T21:01:57.274Z,5.72
2019-01-08T21:04:35.092Z,5.67
2019-01-08T21:07:17.022Z,5.69
2019-01-08T21:09:48.287Z,5.75
2019-01-08T21:12:17.631Z,5.73
2019-01-08T21:14:47.261Z,5.71
2019-01-08T21:17:16.633Z,5.68
2019-01-08T21:22:23.660Z,5.62
2019-01-08T21:24:53.421Z,5.57
2019-01-08T21:35:58.615Z,5.71
2019-01-08T21:38:50.524Z,5.75
2019-01-08T21:41:20.321Z,5.76
2019-01-08T21:46:40.948Z,5.54
2019-01-08T21:52:12.393Z,5.36
2019-01-08T21:54:43.382Z,5.35
2019-01-08T21:57:12.726Z,5.31
2019-01-08T21:59:42.455Z,5.27
2019-01-08T22:02:42.659Z,5.22
2019-01-08T22:08:07.889Z,5.16
2019-01-08T22:13:29.849Z,5.12
2019-01-08T22:16:18.735Z,5.05
2019-01-08T22:18:55.970Z,5.08
2019-01-08T22:21:25.784Z,5.12
2019-01-08T22:24:15.588Z,5.21
2019-01-08T22:26:44.945Z,5.21
2019-01-08T22:29:33.915Z,5.19
2019-01-08T22:32:25.148Z,5.20
2019-01-08T22:35:30.028Z,5.19
2019-01-08T22:38:19.553Z,5.22
2019-01-08T22:58:25.331Z,5.19
2019-01-08T23:01:14.312Z,5.14
2019-01-08T23:04:05.672Z,5.13
2019-01-08T23:06:35.388Z,5.12
2019-01-08T23:09:25.818Z,5.16
2019-01-08T23:12:16.433Z,5.17
2019-01-08T23:17:43.624Z,5.24
2019-01-08T23:20:13.480Z,5.27
2019-01-08T23:23:04.119Z,5.29
2019-01-08T23:25:33.696Z,5.32
2019-01-08T23:28:03.190Z,5.33
2019-01-08T23:30:32.610Z,5.34
2019-01-08T23:33:02.475Z,5.35
2019-01-08T23:35:33.732Z,5.36
2019-01-08T23:38:03.886Z,5.28
2019-01-08T23:46:14.623Z,5.32
2019-01-08T23:51:24.461Z,5.26
2019-01-08T23:53:54.062Z,5.18
2019-01-08T23:57:03.802Z,5.18
2019-01-08T23:59:33.243Z,5.11
